KLCQ

Lake City Gateway Airport

Lake City, Florida, USA
METAR KLCQ 261315Z AUTO 14005KT 10SM CLR 23/21 A3000 RMK AO2
Observed Flight Rules
May-26 @ 13:15 UTC (22 minutes ago) Visual Flight Rules
Wind Visibility Clouds
140° at 5 knots 10 miles
  • Clear skies
Temperatures Readings
Current 23°C / 73°F
Dewpoint 21°C / 70°F
Humidity 89%
Altimeter 30" Hg
Pressure 1016 hPa
Elevation 61
METAR KLCQ 261315Z AUTO 14005KT 10SM CLR 23/21 A3000 RMK AO2
Observed Flight Rules
May-26 @ 13:15 UTC
(22 minutes ago)
VFR
Wind Visibility
140° at 5 knots 10 miles
Clouds
  • Clear skies
Temperature Dewpoint
23°C / 73°F 21°C / 70°F
Humidity Altimeter Pressure
89% 30" Hg 1016 hPa